createdAt,value
2023-08-08T00:01:30.894Z,16.30
2023-08-08T00:03:57.853Z,16.30
2023-08-08T00:06:24.792Z,16.20
2023-08-08T00:08:51.596Z,16.20
2023-08-08T00:11:18.604Z,16.20
2023-08-08T00:13:46.953Z,16.10
2023-08-08T00:16:13.780Z,16.10
2023-08-08T00:18:40.601Z,16.10
2023-08-08T00:21:07.364Z,16.10
2023-08-08T00:23:34.194Z,16.10
2023-08-08T00:26:00.986Z,16.00
2023-08-08T00:28:27.860Z,16.00
2023-08-08T00:30:56.869Z,16.00
2023-08-08T00:33:23.793Z,16.00
2023-08-08T00:35:50.599Z,16.00
2023-08-08T00:38:19.267Z,15.90
2023-08-08T00:40:46.118Z,16.00
2023-08-08T00:43:13.203Z,15.90
2023-08-08T00:45:43.046Z,15.90
2023-08-08T00:48:11.549Z,15.90
2023-08-08T00:50:38.886Z,15.90
2023-08-08T00:53:06.138Z,15.80
2023-08-08T00:55:33.352Z,15.80
2023-08-08T00:58:00.537Z,15.80
2023-08-08T01:00:27.428Z,15.80
2023-08-08T01:02:54.350Z,15.80
2023-08-08T01:05:23.018Z,15.80
2023-08-08T01:07:55.327Z,15.80
2023-08-08T01:10:26.503Z,15.80
2023-08-08T01:12:57.776Z,15.70
2023-08-08T01:15:25.329Z,15.70
2023-08-08T01:17:52.933Z,15.70
2023-08-08T01:20:20.561Z,15.70
2023-08-08T01:22:59.563Z,15.70
2023-08-08T01:25:27.858Z,15.70
2023-08-08T01:27:54.803Z,15.70
2023-08-08T01:30:21.941Z,15.60
2023-08-08T01:32:48.835Z,15.60
2023-08-08T01:35:16.182Z,15.60
2023-08-08T01:37:47.197Z,15.60
2023-08-08T01:40:17.139Z,15.60
2023-08-08T01:42:47.367Z,15.50
2023-08-08T01:45:15.654Z,15.50
2023-08-08T01:47:42.693Z,15.50
2023-08-08T01:50:10.440Z,15.40
2023-08-08T01:52:37.406Z,15.40
2023-08-08T01:55:05.343Z,15.40
2023-08-08T01:57:32.135Z,15.40
2023-08-08T02:00:00.378Z,15.40
2023-08-08T02:02:28.063Z,15.30
2023-08-08T02:04:54.934Z,15.30
2023-08-08T02:07:21.858Z,15.20
2023-08-08T02:09:50.106Z,15.20
2023-08-08T02:12:16.955Z,15.10
2023-08-08T02:14:43.732Z,15.10
2023-08-08T02:17:11.882Z,15.10
2023-08-08T02:19:38.776Z,15.00
2023-08-08T02:22:05.770Z,15.00
2023-08-08T02:24:32.641Z,14.90
2023-08-08T02:26:59.799Z,14.90
2023-08-08T02:29:26.622Z,14.90
2023-08-08T02:31:53.455Z,14.90
2023-08-08T02:34:21.669Z,14.80
2023-08-08T02:36:49.042Z,14.80
2023-08-08T02:39:16.525Z,14.80
2023-08-08T02:41:43.979Z,14.70
2023-08-08T02:44:11.596Z,14.70
2023-08-08T02:46:41.158Z,14.60
2023-08-08T02:49:07.932Z,14.60
2023-08-08T02:51:36.038Z,14.60
2023-08-08T02:54:02.807Z,14.60
2023-08-08T02:56:29.639Z,14.50
2023-08-08T02:58:56.705Z,14.40
2023-08-08T03:01:23.658Z,14.50
2023-08-08T03:03:50.758Z,14.30
2023-08-08T03:06:17.666Z,14.30
2023-08-08T03:08:45.774Z,14.30
2023-08-08T03:11:12.595Z,14.30
2023-08-08T03:13:39.447Z,14.30
2023-08-08T03:16:06.428Z,14.20
2023-08-08T03:18:33.514Z,14.20
2023-08-08T03:21:00.405Z,14.20
2023-08-08T03:23:27.347Z,14.10
2023-08-08T03:25:55.523Z,14.10
2023-08-08T03:28:22.326Z,14.10
2023-08-08T03:30:49.176Z,14.00
2023-08-08T03:33:16.015Z,14.00
2023-08-08T03:35:44.494Z,14.00
2023-08-08T03:38:11.403Z,13.90
2023-08-08T03:40:38.356Z,13.90
2023-08-08T03:43:06.826Z,13.90
2023-08-08T03:45:33.755Z,13.90
2023-08-08T03:48:00.615Z,13.90
2023-08-08T03:50:27.592Z,13.80
2023-08-08T03:52:54.404Z,13.80
2023-08-08T03:55:21.962Z,13.70
2023-08-08T03:57:48.783Z,13.70
2023-08-08T04:00:18.086Z,13.70
2023-08-08T04:02:44.967Z,13.70
2023-08-08T04:05:12.497Z,13.70
2023-08-08T04:07:39.304Z,13.70
2023-08-08T04:10:07.410Z,13.70
2023-08-08T04:12:34.309Z,13.80
2023-08-08T04:15:01.315Z,13.80
2023-08-08T04:17:29.525Z,13.80
2023-08-08T04:19:56.320Z,13.80
2023-08-08T04:22:23.080Z,13.80
2023-08-08T04:24:49.864Z,13.80
2023-08-08T04:27:16.753Z,13.80
2023-08-08T04:29:43.566Z,13.80
2023-08-08T04:32:10.453Z,13.80
2023-08-08T04:34:38.605Z,13.90
2023-08-08T04:37:05.771Z,13.90
2023-08-08T04:39:32.596Z,13.90
2023-08-08T04:41:59.822Z,13.90
2023-08-08T04:44:26.899Z,13.90
2023-08-08T04:46:53.704Z,13.90
2023-08-08T04:49:20.538Z,13.90
2023-08-08T04:51:48.664Z,14.00
2023-08-08T04:54:15.471Z,14.00
2023-08-08T04:56:42.289Z,14.00
2023-08-08T04:59:09.138Z,14.00
2023-08-08T05:01:35.948Z,14.00
2023-08-08T05:04:02.830Z,14.00
2023-08-08T05:06:29.773Z,14.00
2023-08-08T05:08:57.884Z,14.00
2023-08-08T05:11:24.772Z,14.10
2023-08-08T05:13:51.587Z,14.00
2023-08-08T05:16:19.197Z,14.00
2023-08-08T05:18:46.464Z,14.00
2023-08-08T05:21:13.441Z,14.00
2023-08-08T05:23:40.299Z,14.00
2023-08-08T05:26:08.505Z,14.00
2023-08-08T05:28:35.381Z,14.00
2023-08-08T05:31:02.286Z,14.00
2023-08-08T05:33:30.768Z,14.00
2023-08-08T05:35:58.342Z,14.10
2023-08-08T05:38:25.239Z,14.20
2023-08-08T05:40:52.057Z,14.20
2023-08-08T05:43:21.903Z,14.20
2023-08-08T05:45:48.847Z,14.20
2023-08-08T05:48:15.638Z,14.30
2023-08-08T05:50:42.576Z,14.40
2023-08-08T05:53:09.402Z,14.40
2023-08-08T05:55:36.616Z,14.40
2023-08-08T05:58:03.619Z,14.50
2023-08-08T06:00:32.827Z,14.50
2023-08-08T06:02:59.722Z,14.50
2023-08-08T06:05:26.751Z,14.50
2023-08-08T06:07:53.830Z,14.50
2023-08-08T06:10:20.717Z,14.60
2023-08-08T06:12:47.552Z,14.60
2023-08-08T06:15:14.383Z,14.70
2023-08-08T06:17:42.549Z,14.80
2023-08-08T06:20:10.895Z,14.90
2023-08-08T06:22:38.160Z,15.00
2023-08-08T06:25:05.909Z,15.10
2023-08-08T06:27:32.768Z,15.20
2023-08-08T06:30:00.043Z,15.30
2023-08-08T06:32:27.498Z,15.30
2023-08-08T06:34:56.270Z,15.30
2023-08-08T06:37:23.148Z,15.30
2023-08-08T06:39:50.059Z,15.50
2023-08-08T06:42:18.818Z,15.50
2023-08-08T06:44:47.764Z,15.60
2023-08-08T06:47:14.550Z,15.80
2023-08-08T06:49:41.401Z,15.90
2023-08-08T06:52:09.819Z,15.90
2023-08-08T06:54:36.650Z,16.00
2023-08-08T06:57:03.985Z,16.20
2023-08-08T06:59:30.833Z,16.20
2023-08-08T07:01:57.863Z,16.40
2023-08-08T07:04:24.870Z,16.50
2023-08-08T07:06:51.876Z,16.70
2023-08-08T07:09:20.062Z,16.80
2023-08-08T07:11:47.049Z,16.90
2023-08-08T07:14:13.859Z,17.00
2023-08-08T07:16:40.726Z,17.10
2023-08-08T07:19:07.662Z,17.20
2023-08-08T07:21:34.504Z,17.30
2023-08-08T07:24:01.385Z,17.30
2023-08-08T07:26:29.680Z,17.40
2023-08-08T07:28:56.522Z,17.50
2023-08-08T07:31:23.395Z,17.60
2023-08-08T07:33:50.418Z,17.70
2023-08-08T07:36:17.237Z,17.80
2023-08-08T07:38:43.999Z,18.00
2023-08-08T07:41:11.173Z,18.10
2023-08-08T07:43:39.355Z,18.20
2023-08-08T07:46:06.289Z,18.30
2023-08-08T07:48:33.129Z,18.40
2023-08-08T07:50:59.972Z,18.50
2023-08-08T07:53:26.816Z,18.50
2023-08-08T07:55:53.724Z,18.50
2023-08-08T07:58:22.763Z,18.60
2023-08-08T08:00:53.027Z,18.70
2023-08-08T08:03:20.168Z,18.80
2023-08-08T08:05:47.152Z,18.90
2023-08-08T08:08:14.107Z,19.00
2023-08-08T08:10:40.926Z,19.20
2023-08-08T08:13:07.797Z,19.20
2023-08-08T08:15:34.790Z,19.40
2023-08-08T08:18:03.207Z,19.40
2023-08-08T08:20:30.144Z,19.60
2023-08-08T08:22:57.004Z,19.70
2023-08-08T08:25:24.091Z,20.00
2023-08-08T08:27:50.956Z,20.00
2023-08-08T08:30:17.870Z,20.10
2023-08-08T08:32:45.957Z,20.10
2023-08-08T08:35:14.907Z,20.10
2023-08-08T08:37:41.772Z,20.10
2023-08-08T08:40:10.007Z,20.00
2023-08-08T08:42:37.981Z,19.90
2023-08-08T08:45:06.296Z,20.00
2023-08-08T08:47:34.123Z,19.90
2023-08-08T08:50:03.121Z,20.00
2023-08-08T08:52:31.553Z,20.00
2023-08-08T08:54:58.849Z,20.00
2023-08-08T08:57:25.889Z,20.10
2023-08-08T08:59:52.912Z,20.10
2023-08-08T09:02:20.375Z,20.20
2023-08-08T09:04:48.025Z,20.10
2023-08-08T09:07:17.274Z,20.00
2023-08-08T09:09:45.708Z,19.90
2023-08-08T09:12:13.774Z,19.90
2023-08-08T09:14:42.581Z,20.10
2023-08-08T09:17:13.561Z,20.30
2023-08-08T09:19:43.251Z,20.50
2023-08-08T09:22:10.055Z,20.80
2023-08-08T09:24:40.685Z,20.80
2023-08-08T09:27:10.676Z,20.90
2023-08-08T09:29:38.075Z,21.10
2023-08-08T09:32:06.328Z,21.30
2023-08-08T09:34:33.508Z,21.20
2023-08-08T09:37:04.377Z,21.00
2023-08-08T09:39:31.261Z,20.90
2023-08-08T09:41:58.270Z,20.80
2023-08-08T09:44:30.508Z,20.60
2023-08-08T09:46:57.785Z,20.60
2023-08-08T09:49:25.217Z,20.70
2023-08-08T09:51:52.131Z,20.90
2023-08-08T09:54:19.358Z,21.10
2023-08-08T09:56:46.919Z,21.10
2023-08-08T09:59:14.947Z,21.10
2023-08-08T10:01:43.540Z,21.10
2023-08-08T10:04:13.064Z,21.20
2023-08-08T10:06:39.957Z,21.20
2023-08-08T10:09:07.418Z,21.20
2023-08-08T10:11:35.288Z,21.30
2023-08-08T10:14:05.290Z,21.40
2023-08-08T10:16:34.399Z,21.40
2023-08-08T10:19:04.634Z,21.40
2023-08-08T10:21:34.609Z,21.50
2023-08-08T10:24:05.999Z,21.60
2023-08-08T10:26:33.228Z,21.60
2023-08-08T10:29:01.738Z,21.70
2023-08-08T10:31:34.001Z,21.80
2023-08-08T10:34:06.983Z,21.80
2023-08-08T10:36:50.396Z,21.80
2023-08-08T10:39:18.876Z,21.80
2023-08-08T10:41:47.761Z,21.90
2023-08-08T10:44:15.720Z,21.90
2023-08-08T10:46:43.478Z,21.90
2023-08-08T10:49:13.584Z,21.70
2023-08-08T10:51:43.496Z,21.80
2023-08-08T10:54:15.192Z,21.90
2023-08-08T10:56:48.144Z,22.00
2023-08-08T10:59:17.497Z,22.00
2023-08-08T11:01:47.500Z,22.00
2023-08-08T11:04:17.263Z,22.00
2023-08-08T11:06:44.603Z,22.00
2023-08-08T11:09:12.735Z,21.90
2023-08-08T11:11:40.843Z,21.90
2023-08-08T11:14:12.248Z,22.00
2023-08-08T11:16:39.662Z,22.20
2023-08-08T11:19:06.568Z,22.20
2023-08-08T11:21:37.491Z,22.30
2023-08-08T11:24:05.782Z,22.30
2023-08-08T11:26:33.084Z,22.30
2023-08-08T11:29:01.283Z,22.40
2023-08-08T11:31:28.957Z,22.50
2023-08-08T11:33:56.212Z,22.50
2023-08-08T11:36:23.705Z,22.60
2023-08-08T11:38:52.522Z,22.70
2023-08-08T11:41:24.201Z,22.80
2023-08-08T11:43:52.378Z,23.00
2023-08-08T11:46:19.288Z,23.20
2023-08-08T11:48:48.707Z,23.40
2023-08-08T11:51:17.741Z,23.60
2023-08-08T11:53:53.760Z,23.60
2023-08-08T11:56:21.677Z,23.70
2023-08-08T11:58:50.438Z,23.80
2023-08-08T12:01:18.223Z,23.70
2023-08-08T12:03:47.334Z,23.70
2023-08-08T12:06:15.165Z,23.70
2023-08-08T12:08:45.478Z,23.80
2023-08-08T12:11:14.971Z,24.00
2023-08-08T12:13:43.402Z,24.30
2023-08-08T12:16:17.017Z,24.70
2023-08-08T12:18:45.429Z,24.90
2023-08-08T12:21:12.337Z,25.00
2023-08-08T12:23:39.267Z,24.90
2023-08-08T12:26:06.718Z,24.90
2023-08-08T12:28:35.551Z,24.70
2023-08-08T12:31:02.831Z,24.70
2023-08-08T12:33:30.024Z,24.40
2023-08-08T12:35:56.841Z,24.10
2023-08-08T12:38:23.771Z,23.90
2023-08-08T12:40:50.712Z,23.70
2023-08-08T12:43:18.801Z,23.50
2023-08-08T12:45:48.691Z,23.30
2023-08-08T12:48:15.640Z,23.20
2023-08-08T12:50:42.569Z,23.20
2023-08-08T12:53:09.417Z,23.20
2023-08-08T12:55:36.442Z,23.20
2023-08-08T12:58:04.648Z,23.20
2023-08-08T13:00:31.689Z,23.20
2023-08-08T13:03:01.597Z,23.20
2023-08-08T13:05:30.001Z,23.20
2023-08-08T13:07:56.891Z,23.20
2023-08-08T13:10:23.787Z,23.20
2023-08-08T13:12:50.732Z,23.30
2023-08-08T13:15:17.678Z,23.20
2023-08-08T13:17:45.653Z,23.10
2023-08-08T13:20:14.071Z,22.90
2023-08-08T13:22:43.589Z,22.80
2023-08-08T13:25:11.260Z,22.90
2023-08-08T13:27:38.253Z,22.70
2023-08-08T13:30:06.453Z,22.60
2023-08-08T13:32:33.374Z,22.50
2023-08-08T13:35:00.294Z,22.30
2023-08-08T13:37:28.541Z,22.20
2023-08-08T13:39:55.446Z,22.20
2023-08-08T13:42:22.257Z,22.20
2023-08-08T13:44:49.059Z,22.00
2023-08-08T13:47:15.954Z,22.10
2023-08-08T13:49:42.819Z,22.10
2023-08-08T13:52:10.098Z,22.00
2023-08-08T13:54:38.285Z,22.00
2023-08-08T13:57:05.596Z,21.90
2023-08-08T13:59:32.815Z,21.80
2023-08-08T14:02:00.000Z,21.70
2023-08-08T14:04:27.135Z,21.70
2023-08-08T14:06:53.916Z,21.70
2023-08-08T14:09:20.755Z,21.60
2023-08-08T14:11:48.863Z,21.60
2023-08-08T14:14:15.756Z,21.60
2023-08-08T14:16:42.687Z,21.70
2023-08-08T14:19:09.495Z,21.70
2023-08-08T14:21:36.270Z,21.70
2023-08-08T14:24:04.894Z,21.80
2023-08-08T14:26:31.739Z,21.70
2023-08-08T14:28:59.926Z,21.80
2023-08-08T14:31:27.124Z,21.80
2023-08-08T14:33:54.065Z,21.80
2023-08-08T14:36:22.881Z,21.80
2023-08-08T14:38:49.738Z,21.80
2023-08-08T14:41:16.585Z,21.80
2023-08-08T14:43:43.391Z,21.70
2023-08-08T14:46:11.572Z,21.70
2023-08-08T14:48:38.492Z,21.50
2023-08-08T14:51:05.399Z,21.50
2023-08-08T14:53:32.249Z,21.50
2023-08-08T14:55:59.072Z,21.40
2023-08-08T14:58:27.135Z,21.30
2023-08-08T15:00:54.248Z,21.30
2023-08-08T15:03:22.649Z,21.20
2023-08-08T15:05:49.821Z,21.10
2023-08-08T15:08:16.911Z,21.10
2023-08-08T15:10:43.709Z,21.00
2023-08-08T15:13:10.694Z,21.00
2023-08-08T15:15:37.804Z,21.00
2023-08-08T15:18:04.988Z,20.90
2023-08-08T15:20:33.329Z,20.90
2023-08-08T15:23:00.100Z,20.90
2023-08-08T15:25:26.913Z,20.90
2023-08-08T15:27:53.667Z,20.90
2023-08-08T15:30:20.735Z,21.00
2023-08-08T15:32:47.637Z,21.00
2023-08-08T15:35:14.536Z,20.90
2023-08-08T15:37:42.800Z,20.90
2023-08-08T15:40:10.810Z,20.90
2023-08-08T15:42:37.743Z,20.90
2023-08-08T15:45:05.069Z,20.90
2023-08-08T15:47:32.008Z,20.90
2023-08-08T15:49:58.955Z,20.90
2023-08-08T15:52:26.031Z,20.90
2023-08-08T15:54:54.212Z,20.80
2023-08-08T15:57:21.067Z,20.70
2023-08-08T15:59:47.869Z,20.70
2023-08-08T16:02:16.341Z,20.70
2023-08-08T16:04:44.722Z,20.80
2023-08-08T16:07:12.294Z,20.90
2023-08-08T16:09:39.119Z,21.00
2023-08-08T16:12:07.652Z,21.10
2023-08-08T16:14:34.470Z,21.10
2023-08-08T16:17:01.701Z,21.10
2023-08-08T16:19:28.654Z,21.10
2023-08-08T16:21:55.594Z,21.10
2023-08-08T16:24:22.471Z,21.10
2023-08-08T16:26:50.258Z,21.10
2023-08-08T16:29:18.446Z,21.10
2023-08-08T16:31:46.415Z,21.00
2023-08-08T16:34:13.274Z,21.00
2023-08-08T16:36:41.283Z,21.00
2023-08-08T16:39:18.125Z,21.00
2023-08-08T16:41:45.330Z,21.10
2023-08-08T16:44:12.202Z,21.10
2023-08-08T16:46:40.496Z,21.00
2023-08-08T16:49:08.493Z,20.90
2023-08-08T16:51:35.479Z,20.90
2023-08-08T16:54:02.357Z,20.80
2023-08-08T16:56:31.053Z,20.80
2023-08-08T16:58:58.811Z,20.90
2023-08-08T17:01:25.884Z,20.80
2023-08-08T17:03:54.155Z,20.80
2023-08-08T17:06:21.255Z,20.80
2023-08-08T17:08:48.123Z,20.80
2023-08-08T17:11:15.165Z,20.80
2023-08-08T17:13:41.984Z,20.80
2023-08-08T17:16:08.896Z,20.80
2023-08-08T17:18:35.849Z,20.80
2023-08-08T17:21:04.228Z,20.80
2023-08-08T17:23:31.091Z,20.80
2023-08-08T17:25:58.028Z,20.80
2023-08-08T17:28:24.882Z,20.80
2023-08-08T17:30:51.734Z,20.80
2023-08-08T17:33:18.670Z,20.80
2023-08-08T17:35:46.084Z,20.80
2023-08-08T17:38:14.359Z,20.80
2023-08-08T17:40:41.185Z,20.80
2023-08-08T17:43:08.073Z,20.70
2023-08-08T17:45:35.220Z,20.80
2023-08-08T17:48:02.172Z,20.70
2023-08-08T17:50:29.073Z,20.70
2023-08-08T17:52:55.879Z,20.60
2023-08-08T17:55:24.917Z,20.60
2023-08-08T17:57:51.710Z,20.60
2023-08-08T18:00:19.026Z,20.60
2023-08-08T18:02:45.898Z,20.60
2023-08-08T18:05:14.446Z,20.60
2023-08-08T18:07:41.336Z,20.60
2023-08-08T18:10:08.948Z,20.50
2023-08-08T18:12:37.077Z,20.30
2023-08-08T18:15:04.454Z,20.40
2023-08-08T18:17:31.381Z,20.40
2023-08-08T18:19:58.515Z,20.40
2023-08-08T18:22:25.323Z,20.30
2023-08-08T18:24:52.270Z,20.30
2023-08-08T18:27:19.168Z,20.30
2023-08-08T18:29:47.357Z,20.40
2023-08-08T18:32:15.078Z,20.30
2023-08-08T18:34:42.418Z,20.40
2023-08-08T18:37:09.882Z,20.30
2023-08-08T18:39:37.572Z,20.30
2023-08-08T18:42:04.738Z,20.30
2023-08-08T18:44:31.625Z,20.30
2023-08-08T18:46:59.917Z,20.20
2023-08-08T18:49:28.798Z,20.20
2023-08-08T18:51:55.619Z,20.10
2023-08-08T18:54:22.425Z,20.10
2023-08-08T18:56:49.210Z,20.00
2023-08-08T18:59:15.983Z,20.00
2023-08-08T19:01:42.870Z,20.00
2023-08-08T19:04:11.162Z,19.90
2023-08-08T19:06:38.318Z,19.90
2023-08-08T19:09:09.296Z,19.80
2023-08-08T19:11:36.498Z,19.80
2023-08-08T19:14:03.691Z,19.70
2023-08-08T19:16:31.830Z,19.70
2023-08-08T19:18:58.659Z,19.70
2023-08-08T19:21:26.777Z,19.60
2023-08-08T19:23:53.812Z,19.60
2023-08-08T19:26:21.266Z,19.60
2023-08-08T19:28:49.077Z,19.50
2023-08-08T19:31:16.136Z,19.50
2023-08-08T19:33:51.858Z,19.50
2023-08-08T19:36:29.207Z,19.60
2023-08-08T19:38:56.949Z,19.40
2023-08-08T19:41:23.818Z,19.40
2023-08-08T19:43:50.789Z,19.30
2023-08-08T19:46:17.677Z,19.30
2023-08-08T19:48:46.347Z,19.30
2023-08-08T19:51:13.267Z,19.30
2023-08-08T19:53:42.267Z,19.30
2023-08-08T19:56:09.114Z,19.20
2023-08-08T19:58:36.290Z,19.20
2023-08-08T20:01:03.333Z,19.20
2023-08-08T20:03:30.379Z,19.20
2023-08-08T20:05:57.242Z,19.20
2023-08-08T20:08:24.202Z,19.20
2023-08-08T20:10:52.400Z,19.20
2023-08-08T20:13:19.273Z,19.20
2023-08-08T20:15:46.117Z,19.20
2023-08-08T20:18:13.083Z,19.20
2023-08-08T20:20:40.116Z,19.20
2023-08-08T20:23:06.952Z,19.20
2023-08-08T20:25:33.878Z,19.20
2023-08-08T20:28:02.137Z,19.20
2023-08-08T20:30:28.950Z,19.20
2023-08-08T20:32:55.760Z,19.20
2023-08-08T20:35:23.121Z,19.20
2023-08-08T20:37:49.907Z,19.10
2023-08-08T20:40:16.920Z,19.10
2023-08-08T20:42:43.815Z,19.00
2023-08-08T20:45:12.298Z,19.10
2023-08-08T20:47:39.360Z,19.00
2023-08-08T20:50:07.456Z,19.00
2023-08-08T20:52:34.526Z,19.00
2023-08-08T20:55:01.460Z,18.90
2023-08-08T20:57:28.353Z,18.90
2023-08-08T20:59:55.313Z,19.00
2023-08-08T21:02:23.484Z,18.90
2023-08-08T21:04:52.220Z,18.90
2023-08-08T21:07:20.236Z,18.80
2023-08-08T21:09:47.447Z,18.70
2023-08-08T21:12:15.359Z,18.70
2023-08-08T21:14:42.598Z,18.60
2023-08-08T21:17:09.923Z,18.60
2023-08-08T21:19:38.204Z,18.60
2023-08-08T21:22:05.233Z,18.60
2023-08-08T21:24:32.613Z,18.60
2023-08-08T21:26:59.565Z,18.60
2023-08-08T21:29:26.463Z,18.60
2023-08-08T21:31:53.232Z,18.60
2023-08-08T21:34:20.094Z,18.60
2023-08-08T21:36:49.793Z,18.60
2023-08-08T21:39:16.563Z,18.50
2023-08-08T21:41:43.371Z,18.40
2023-08-08T21:44:10.237Z,18.40
2023-08-08T21:46:37.252Z,18.30
2023-08-08T21:49:04.369Z,18.10
2023-08-08T21:51:31.195Z,18.00
2023-08-08T21:53:59.386Z,18.00
2023-08-08T21:56:26.273Z,17.70
2023-08-08T21:58:53.067Z,17.60
2023-08-08T22:01:19.905Z,17.40
2023-08-08T22:03:47.567Z,17.30
2023-08-08T22:06:14.372Z,17.20
2023-08-08T22:08:41.182Z,17.10
2023-08-08T22:11:09.458Z,17.00
2023-08-08T22:13:36.267Z,16.90
2023-08-08T22:16:03.370Z,16.80
2023-08-08T22:18:30.332Z,16.80
2023-08-08T22:20:57.231Z,16.70
2023-08-08T22:23:24.099Z,16.60
2023-08-08T22:25:51.309Z,16.50
2023-08-08T22:28:20.085Z,16.50
2023-08-08T22:30:48.575Z,16.50
2023-08-08T22:33:16.864Z,16.50
2023-08-08T22:35:43.688Z,16.40
2023-08-08T22:38:10.513Z,16.40
2023-08-08T22:40:37.392Z,16.30
2023-08-08T22:43:04.440Z,16.30
2023-08-08T22:45:32.924Z,16.20
2023-08-08T22:48:00.253Z,16.20
2023-08-08T22:50:27.230Z,16.20
2023-08-08T22:52:54.030Z,16.20
2023-08-08T22:55:21.224Z,16.20
2023-08-08T22:57:48.112Z,16.20
2023-08-08T23:00:16.584Z,16.20
2023-08-08T23:02:44.954Z,16.20
2023-08-08T23:05:11.765Z,16.20
2023-08-08T23:07:39.187Z,16.30
2023-08-08T23:10:07.060Z,16.30
2023-08-08T23:12:33.903Z,16.30
2023-08-08T23:15:00.755Z,16.30
2023-08-08T23:17:27.994Z,16.20
2023-08-08T23:19:56.190Z,16.20
2023-08-08T23:22:23.134Z,16.20
2023-08-08T23:24:50.036Z,16.20
2023-08-08T23:27:16.905Z,16.10
2023-08-08T23:29:43.768Z,16.10
2023-08-08T23:32:10.616Z,16.10
2023-08-08T23:34:37.471Z,16.10
2023-08-08T23:37:09.414Z,15.90
2023-08-08T23:39:41.064Z,16.00
2023-08-08T23:42:07.840Z,16.00
2023-08-08T23:44:34.602Z,16.00
2023-08-08T23:47:01.692Z,16.00
2023-08-08T23:49:28.607Z,16.00
2023-08-08T23:51:55.408Z,16.00
2023-08-08T23:54:23.526Z,16.00
2023-08-08T23:56:50.328Z,16.00
2023-08-08T23:59:17.678Z,16.00
